バロー の空港の天気 - METARとTAF

Barrow, Wiley Post-Will Rogers Memorial Airport ( PABR / BRW ) - アメリカ アラスカ州バロー
飛行場実況気象(Metar)
観測時間08/10 21:53 AKDT (08/11 05:53 UTC)
風向・風速東 2m/s
視程10km以上
天気現象
全天の4割程度の雲 雲底高度 1830m
気温6.7℃
湿度85%
気圧1012.4hPa
METARPABR 110553Z 09004KT 10SM SCT060 07/04 A2990 RMK AO2 SLP124 T00670044 10078 20061 50001
過去の天気等 Google飛行場航空写真 Wunderground天気予報

過去48時間のMETAR

飛行場予報(TAF)
発表時間: 8/10 21:28 AKDT (8/11 05:28 UTC)
予報対象時間: 10日22時 AKDT ~ 11日22時 AKDT
風向・風速不定 2m/s
視程10km以上
天気現象周辺で霧
少しの雲 雲底高度 240m
全天の4割程度の雲 雲底高度 1520m
PABR 110528Z 1106/1206 VRB04KT P6SM VCFG FEW008 SCT050